createdAt,value
2023-04-20T00:01:11.518Z,11.84
2023-04-20T00:03:45.890Z,11.81
2023-04-20T00:06:22.171Z,11.80
2023-04-20T00:08:56.405Z,11.77
2023-04-20T00:11:30.507Z,11.74
2023-04-20T00:14:04.613Z,11.70
2023-04-20T00:16:38.544Z,11.65
2023-04-20T00:19:12.473Z,11.59
2023-04-20T00:21:46.724Z,11.56
2023-04-20T00:24:20.335Z,11.54
2023-04-20T00:26:55.291Z,11.53
2023-04-20T00:29:29.027Z,11.55
2023-04-20T00:32:04.584Z,11.58
2023-04-20T00:34:38.227Z,11.62
2023-04-20T00:37:25.976Z,11.66
2023-04-20T00:40:00.748Z,11.69
2023-04-20T00:42:40.990Z,11.70
2023-04-20T00:45:15.984Z,11.70
2023-04-20T00:47:50.342Z,11.73
2023-04-20T00:50:24.547Z,11.75
2023-04-20T00:52:58.412Z,11.77
2023-04-20T00:55:33.689Z,11.78
2023-04-20T00:58:07.899Z,11.80
2023-04-20T01:00:42.187Z,11.79
2023-04-20T01:03:17.256Z,11.78
2023-04-20T01:05:53.337Z,11.78
2023-04-20T01:08:31.640Z,11.77
2023-04-20T01:11:05.426Z,11.77
2023-04-20T01:13:39.214Z,11.77
2023-04-20T01:16:13.087Z,11.79
2023-04-20T01:18:48.666Z,11.83
2023-04-20T01:21:24.208Z,11.85
2023-04-20T01:23:59.087Z,11.85
2023-04-20T01:26:33.238Z,11.86
2023-04-20T01:29:06.859Z,11.87
2023-04-20T01:31:40.775Z,11.88
2023-04-20T01:34:15.588Z,11.89
2023-04-20T01:36:49.495Z,11.88
2023-04-20T01:39:23.216Z,11.90
2023-04-20T01:41:56.901Z,11.94
2023-04-20T01:44:31.749Z,11.97
2023-04-20T01:47:06.638Z,11.99
2023-04-20T01:49:47.861Z,12.00
2023-04-20T01:52:21.758Z,12.00
2023-04-20T01:54:55.705Z,11.99
2023-04-20T01:57:31.578Z,12.00
2023-04-20T02:00:05.896Z,12.01
2023-04-20T02:02:48.020Z,12.04
2023-04-20T02:05:22.810Z,12.07
2023-04-20T02:07:57.111Z,12.07
2023-04-20T02:10:31.031Z,12.08
2023-04-20T02:13:05.203Z,12.09
2023-04-20T02:15:39.152Z,12.11
2023-04-20T02:18:13.023Z,12.11
2023-04-20T02:20:47.428Z,12.11
2023-04-20T02:23:21.142Z,12.12
2023-04-20T02:25:55.254Z,12.13
2023-04-20T02:28:28.989Z,12.14
2023-04-20T02:31:02.601Z,12.14
2023-04-20T02:33:36.620Z,12.14
2023-04-20T02:36:11.738Z,12.14
2023-04-20T02:38:47.147Z,12.13
2023-04-20T02:41:20.983Z,12.11
2023-04-20T02:43:55.028Z,12.07
2023-04-20T02:46:28.847Z,12.05
2023-04-20T02:49:03.933Z,12.05
2023-04-20T02:51:38.758Z,12.04
2023-04-20T02:54:12.535Z,12.03
2023-04-20T02:56:46.462Z,12.04
2023-04-20T02:59:20.251Z,12.04
2023-04-20T03:02:13.436Z,12.02
2023-04-20T03:04:49.141Z,12.01
2023-04-20T03:07:26.518Z,12.00
2023-04-20T03:10:03.878Z,11.99
2023-04-20T03:13:03.673Z,12.00
2023-04-20T03:15:42.401Z,12.00
2023-04-20T03:18:36.863Z,12.01
2023-04-20T03:21:10.623Z,12.02
2023-04-20T03:23:44.843Z,12.04
2023-04-20T03:26:19.149Z,12.04
2023-04-20T03:29:02.427Z,12.03
2023-04-20T03:31:43.736Z,12.04
2023-04-20T03:34:17.506Z,12.04
2023-04-20T03:36:52.020Z,12.06
2023-04-20T03:39:25.699Z,12.06
2023-04-20T03:41:59.641Z,12.06
2023-04-20T03:44:33.342Z,12.05
2023-04-20T03:47:06.982Z,12.05
2023-04-20T03:49:41.064Z,12.03
2023-04-20T03:52:15.314Z,12.01
2023-04-20T03:54:49.063Z,11.97
2023-04-20T03:57:23.561Z,11.93
2023-04-20T03:59:57.487Z,11.92
2023-04-20T04:02:32.485Z,11.91
2023-04-20T04:05:08.034Z,11.92
2023-04-20T04:07:42.175Z,11.92
2023-04-20T04:10:18.254Z,11.92
2023-04-20T04:12:52.099Z,11.91
2023-04-20T04:15:25.818Z,11.91
2023-04-20T04:18:06.050Z,11.89
2023-04-20T04:20:40.368Z,11.88
2023-04-20T04:23:15.716Z,11.88
2023-04-20T04:25:53.127Z,11.90
2023-04-20T04:28:30.213Z,11.95
2023-04-20T04:31:13.085Z,11.97
2023-04-20T04:33:47.067Z,11.98
2023-04-20T04:36:29.922Z,12.03
2023-04-20T04:39:31.859Z,12.11
2023-04-20T04:42:13.312Z,12.20
2023-04-20T04:44:49.284Z,12.27
2023-04-20T04:47:30.011Z,12.35
2023-04-20T04:50:06.215Z,12.43
2023-04-20T04:52:40.313Z,12.50
2023-04-20T04:55:16.268Z,12.56
2023-04-20T04:57:50.541Z,12.61
2023-04-20T05:00:25.703Z,12.67
2023-04-20T05:03:00.039Z,12.76
2023-04-20T05:05:33.808Z,12.86
2023-04-20T05:08:07.801Z,12.97
2023-04-20T05:10:41.865Z,13.04
2023-04-20T05:13:15.628Z,13.11
2023-04-20T05:15:49.214Z,13.17
2023-04-20T05:18:23.611Z,13.23
2023-04-20T05:20:57.870Z,13.29
2023-04-20T05:23:31.715Z,13.37
2023-04-20T05:26:05.835Z,13.44
2023-04-20T05:28:43.163Z,13.50
2023-04-20T05:31:16.935Z,13.57
2023-04-20T05:33:50.725Z,13.63
2023-04-20T05:36:24.476Z,13.67
2023-04-20T05:38:58.222Z,13.71
2023-04-20T05:41:32.168Z,13.80
2023-04-20T05:44:05.918Z,13.95
2023-04-20T05:46:39.701Z,14.25
2023-04-20T05:49:13.661Z,15.03
2023-04-20T05:51:47.675Z,16.12
2023-04-20T05:54:21.692Z,17.33
2023-04-20T05:56:55.654Z,18.61
2023-04-20T05:59:30.289Z,19.23
2023-04-20T06:02:03.934Z,19.04
2023-04-20T06:04:38.868Z,18.79
2023-04-20T06:07:12.916Z,18.60
2023-04-20T06:09:46.374Z,18.54
2023-04-20T06:12:20.786Z,19.04
2023-04-20T06:14:55.020Z,19.81
2023-04-20T06:17:28.686Z,21.35
2023-04-20T06:20:02.482Z,22.67
2023-04-20T06:22:36.602Z,23.71
2023-04-20T06:25:11.841Z,24.88
2023-04-20T06:27:45.680Z,25.93
2023-04-20T06:30:20.061Z,26.77
2023-04-20T06:32:53.941Z,26.62
2023-04-20T06:35:28.024Z,26.35
2023-04-20T06:38:02.857Z,27.47
2023-04-20T06:40:36.644Z,29.03
2023-04-20T06:43:10.740Z,30.33
2023-04-20T06:45:44.372Z,31.58
2023-04-20T06:48:31.650Z,32.69
2023-04-20T06:51:17.560Z,33.78
2023-04-20T06:53:52.002Z,34.86
2023-04-20T06:56:25.937Z,35.79
2023-04-20T06:58:59.541Z,36.35
2023-04-20T07:01:33.429Z,36.71
2023-04-20T07:04:07.349Z,37.09
2023-04-20T07:06:41.650Z,37.83
2023-04-20T07:09:15.564Z,38.44
2023-04-20T07:12:09.709Z,39.07
2023-04-20T07:14:44.164Z,39.22
2023-04-20T07:17:31.050Z,39.54
2023-04-20T07:20:07.725Z,39.49
2023-04-20T07:22:42.113Z,39.07
2023-04-20T07:25:15.690Z,38.92
2023-04-20T07:27:49.451Z,39.04
2023-04-20T07:30:23.122Z,39.14
2023-04-20T07:32:56.868Z,39.30
2023-04-20T07:35:30.819Z,39.79
2023-04-20T07:38:04.420Z,40.22
2023-04-20T07:40:38.441Z,40.32
2023-04-20T07:43:12.169Z,40.41
2023-04-20T07:45:46.289Z,40.75
2023-04-20T07:48:19.723Z,40.85
2023-04-20T07:50:53.388Z,40.61
2023-04-20T07:53:27.253Z,39.88
2023-04-20T07:56:01.525Z,39.35
2023-04-20T07:58:35.386Z,38.78
2023-04-20T08:01:09.229Z,38.22
2023-04-20T08:03:43.391Z,37.71
2023-04-20T08:06:17.439Z,37.37
2023-04-20T08:08:50.938Z,37.31
2023-04-20T08:11:25.458Z,37.66
2023-04-20T08:13:59.115Z,38.54
2023-04-20T08:16:33.088Z,39.41
2023-04-20T08:19:10.820Z,40.20
2023-04-20T08:21:43.167Z,40.15
2023-04-20T08:24:17.366Z,38.66
2023-04-20T08:26:51.693Z,36.91
2023-04-20T08:29:25.226Z,35.43
2023-04-20T08:31:59.037Z,34.43
2023-04-20T08:34:32.962Z,34.19
2023-04-20T08:37:07.691Z,35.61
2023-04-20T08:39:41.746Z,37.17
2023-04-20T08:42:17.324Z,38.70
2023-04-20T08:45:12.742Z,40.22
2023-04-20T08:47:46.880Z,40.84
2023-04-20T08:50:22.576Z,40.73
2023-04-20T08:52:57.036Z,40.38
2023-04-20T08:55:39.938Z,39.83
2023-04-20T08:58:13.929Z,38.53
2023-04-20T09:00:51.572Z,37.34
2023-04-20T09:03:37.181Z,37.35
2023-04-20T09:06:18.280Z,37.48
2023-04-20T09:08:52.453Z,36.71
2023-04-20T09:11:30.600Z,36.58
2023-04-20T09:14:07.294Z,37.63
2023-04-20T09:16:50.743Z,38.21
2023-04-20T09:19:28.526Z,38.32
2023-04-20T09:22:05.546Z,38.02
2023-04-20T09:24:41.207Z,36.56
2023-04-20T09:27:23.054Z,35.38
2023-04-20T09:30:04.241Z,34.44
2023-04-20T09:32:38.089Z,33.07
2023-04-20T09:35:13.150Z,31.77
2023-04-20T09:37:52.818Z,30.84
2023-04-20T09:40:30.409Z,30.07
2023-04-20T09:43:11.953Z,29.36
2023-04-20T09:45:47.951Z,29.04
2023-04-20T09:48:22.608Z,29.61
2023-04-20T09:50:57.180Z,30.10
2023-04-20T09:53:32.717Z,30.54
2023-04-20T09:56:10.319Z,31.49
2023-04-20T09:58:44.907Z,33.14
2023-04-20T10:01:18.977Z,34.73
2023-04-20T10:03:54.586Z,35.52
2023-04-20T10:06:38.611Z,36.16
2023-04-20T10:09:22.578Z,36.56
2023-04-20T10:12:07.156Z,36.54
2023-04-20T10:14:41.400Z,37.39
2023-04-20T10:17:15.269Z,38.24
2023-04-20T10:19:49.739Z,38.55
2023-04-20T10:22:34.377Z,38.57
2023-04-20T10:25:20.840Z,37.50
2023-04-20T10:27:59.554Z,36.64
2023-04-20T10:30:34.124Z,36.40
2023-04-20T10:33:12.268Z,35.58
2023-04-20T10:35:48.800Z,34.51
2023-04-20T10:38:34.099Z,33.09
2023-04-20T10:41:11.555Z,31.84
2023-04-20T10:43:45.416Z,30.95
2023-04-20T10:46:24.076Z,30.27
2023-04-20T10:48:59.373Z,29.79
2023-04-20T10:51:33.468Z,29.66
2023-04-20T10:54:11.789Z,29.69
2023-04-20T10:56:46.983Z,29.38
2023-04-20T10:59:22.556Z,29.15
2023-04-20T11:01:56.941Z,29.65
2023-04-20T11:04:37.500Z,30.36
2023-04-20T11:07:14.173Z,30.59
2023-04-20T11:09:55.544Z,31.09
2023-04-20T11:12:41.903Z,31.95
2023-04-20T11:15:16.730Z,32.47
2023-04-20T11:17:50.216Z,32.92
2023-04-20T11:20:23.795Z,33.92
2023-04-20T11:23:01.421Z,35.32
2023-04-20T11:25:53.012Z,35.71
2023-04-20T11:28:31.099Z,35.11
2023-04-20T11:31:05.679Z,34.13
2023-04-20T11:33:39.579Z,33.52
2023-04-20T11:36:22.659Z,33.05
2023-04-20T11:38:56.316Z,33.07
2023-04-20T11:41:42.780Z,33.67
2023-04-20T11:44:21.313Z,34.63
2023-04-20T11:46:57.735Z,35.35
2023-04-20T11:49:32.454Z,34.61
2023-04-20T11:52:06.890Z,33.36
2023-04-20T11:54:41.831Z,32.25
2023-04-20T11:57:15.609Z,31.41
2023-04-20T11:59:49.646Z,31.16
2023-04-20T12:02:23.917Z,30.94
2023-04-20T12:04:58.153Z,30.17
2023-04-20T12:07:32.005Z,29.38
2023-04-20T12:10:05.758Z,28.68
2023-04-20T12:12:39.550Z,28.09
2023-04-20T12:15:14.490Z,27.50
2023-04-20T12:17:48.621Z,27.16
2023-04-20T12:20:22.272Z,28.14
2023-04-20T12:22:57.228Z,29.76
2023-04-20T12:25:33.018Z,30.79
2023-04-20T12:28:27.391Z,30.84
2023-04-20T12:31:01.289Z,30.26
2023-04-20T12:33:37.855Z,29.55
2023-04-20T12:36:12.340Z,28.77
2023-04-20T12:38:48.343Z,28.06
2023-04-20T12:41:23.218Z,27.38
2023-04-20T12:43:57.093Z,26.84
2023-04-20T12:46:30.880Z,26.39
2023-04-20T12:49:04.822Z,26.11
2023-04-20T12:51:38.825Z,25.93
2023-04-20T12:54:13.040Z,26.43
2023-04-20T12:56:47.055Z,27.28
2023-04-20T12:59:21.036Z,27.87
2023-04-20T13:01:54.534Z,28.62
2023-04-20T13:04:29.535Z,29.51
2023-04-20T13:07:03.358Z,29.61
2023-04-20T13:09:37.664Z,28.86
2023-04-20T13:12:11.742Z,28.00
2023-04-20T13:14:45.164Z,27.22
2023-04-20T13:17:19.090Z,26.53
2023-04-20T13:19:53.587Z,25.98
2023-04-20T13:22:27.371Z,25.75
2023-04-20T13:25:01.162Z,26.07
2023-04-20T13:27:34.782Z,26.43
2023-04-20T13:30:10.422Z,26.47
2023-04-20T13:32:44.273Z,26.35
2023-04-20T13:35:18.366Z,26.13
2023-04-20T13:37:52.119Z,25.82
2023-04-20T13:40:26.080Z,25.58
2023-04-20T13:42:59.828Z,25.30
2023-04-20T13:45:33.872Z,25.13
2023-04-20T13:48:07.427Z,25.01
2023-04-20T13:50:41.158Z,24.98
2023-04-20T13:53:14.825Z,24.94
2023-04-20T13:55:49.054Z,24.98
2023-04-20T13:58:22.895Z,25.11
2023-04-20T14:00:56.761Z,25.26
2023-04-20T14:03:30.785Z,25.22
2023-04-20T14:06:04.695Z,25.07
2023-04-20T14:08:38.498Z,25.00
2023-04-20T14:11:11.929Z,24.89
2023-04-20T14:13:46.080Z,24.77
2023-04-20T14:16:23.205Z,24.64
2023-04-20T14:18:57.180Z,24.53
2023-04-20T14:21:30.715Z,24.42
2023-04-20T14:24:05.009Z,24.31
2023-04-20T14:26:38.887Z,24.22
2023-04-20T14:29:12.690Z,24.16
2023-04-20T14:31:46.313Z,24.11
2023-04-20T14:34:20.326Z,24.09
2023-04-20T14:36:54.138Z,24.03
2023-04-20T14:39:27.779Z,23.98
2023-04-20T14:42:02.103Z,23.98
2023-04-20T14:44:35.829Z,24.01
2023-04-20T14:47:10.104Z,24.12
2023-04-20T14:49:44.883Z,24.23
2023-04-20T14:52:19.106Z,24.27
2023-04-20T14:54:52.892Z,24.19
2023-04-20T14:57:26.476Z,24.10
2023-04-20T15:00:00.045Z,23.95
2023-04-20T15:02:34.440Z,23.79
2023-04-20T15:05:11.207Z,23.63
2023-04-20T15:07:46.363Z,23.41
2023-04-20T15:10:21.397Z,23.26
2023-04-20T15:12:54.995Z,23.11
2023-04-20T15:15:41.584Z,22.95
2023-04-20T15:18:22.473Z,22.83
2023-04-20T15:20:56.686Z,22.75
2023-04-20T15:23:30.226Z,22.70
2023-04-20T15:26:04.273Z,22.72
2023-04-20T15:28:38.204Z,22.69
2023-04-20T15:31:12.393Z,22.71
2023-04-20T15:33:48.624Z,22.79
2023-04-20T15:36:23.037Z,22.86
2023-04-20T15:38:57.954Z,22.89
2023-04-20T15:41:33.311Z,22.85
2023-04-20T15:44:07.361Z,22.70
2023-04-20T15:46:41.931Z,22.57
2023-04-20T15:49:16.555Z,22.47
2023-04-20T15:51:50.585Z,22.37
2023-04-20T15:54:33.240Z,22.25
2023-04-20T15:57:07.065Z,22.17
2023-04-20T15:59:41.267Z,22.10
2023-04-20T16:02:15.155Z,22.04
2023-04-20T16:04:49.665Z,22.02
2023-04-20T16:07:25.874Z,22.06
2023-04-20T16:09:59.845Z,22.14
2023-04-20T16:12:33.495Z,22.18
2023-04-20T16:15:08.760Z,22.21
2023-04-20T16:17:42.705Z,22.15
2023-04-20T16:20:16.753Z,22.07
2023-04-20T16:22:50.778Z,21.99
2023-04-20T16:25:25.976Z,21.87
2023-04-20T16:27:59.685Z,21.69
2023-04-20T16:30:34.124Z,21.52
2023-04-20T16:33:08.036Z,21.35
2023-04-20T16:35:41.886Z,21.21
2023-04-20T16:38:15.676Z,21.08
2023-04-20T16:40:49.471Z,20.96
2023-04-20T16:43:23.537Z,20.89
2023-04-20T16:45:57.246Z,20.79
2023-04-20T16:48:30.764Z,20.69
2023-04-20T16:51:04.346Z,20.59
2023-04-20T16:53:38.174Z,20.52
2023-04-20T16:56:12.820Z,20.45
2023-04-20T16:58:47.422Z,20.36
2023-04-20T17:01:20.980Z,20.28
2023-04-20T17:03:54.649Z,20.19
2023-04-20T17:06:28.711Z,20.10
2023-04-20T17:09:07.662Z,19.99
2023-04-20T17:11:41.500Z,19.92
2023-04-20T17:14:15.211Z,19.85
2023-04-20T17:16:49.070Z,19.78
2023-04-20T17:19:23.150Z,19.70
2023-04-20T17:21:57.230Z,19.63
2023-04-20T17:24:30.946Z,19.57
2023-04-20T17:27:04.963Z,19.52
2023-04-20T17:29:38.914Z,19.45
2023-04-20T17:32:37.176Z,19.39
2023-04-20T17:35:32.311Z,19.31
2023-04-20T17:38:33.100Z,19.23
2023-04-20T17:41:21.699Z,19.13
2023-04-20T17:43:56.320Z,19.03
2023-04-20T17:46:32.971Z,18.96
2023-04-20T17:49:07.503Z,18.88
2023-04-20T17:51:41.340Z,18.81
2023-04-20T17:54:14.972Z,18.73
2023-04-20T17:56:49.007Z,18.66
2023-04-20T17:59:27.821Z,18.61
2023-04-20T18:02:02.304Z,18.55
2023-04-20T18:04:37.864Z,18.49
2023-04-20T18:07:13.708Z,18.43
2023-04-20T18:09:48.841Z,18.36
2023-04-20T18:12:23.304Z,18.27
2023-04-20T18:15:04.595Z,18.21
2023-04-20T18:17:40.157Z,18.14
2023-04-20T18:20:14.786Z,18.08
2023-04-20T18:22:52.354Z,18.01
2023-04-20T18:25:27.306Z,17.95
2023-04-20T18:28:03.989Z,17.89
2023-04-20T18:30:39.008Z,17.82
2023-04-20T18:33:15.720Z,17.76
2023-04-20T18:35:50.095Z,17.69
2023-04-20T18:38:25.688Z,17.63
2023-04-20T18:41:03.018Z,17.56
2023-04-20T18:43:38.788Z,17.51
2023-04-20T18:46:16.833Z,17.43
2023-04-20T18:48:51.710Z,17.37
2023-04-20T18:51:39.834Z,17.33
2023-04-20T18:54:18.162Z,17.29
2023-04-20T18:57:01.681Z,17.24
2023-04-20T18:59:40.393Z,17.19
2023-04-20T19:02:18.322Z,17.13
2023-04-20T19:04:54.730Z,17.08
2023-04-20T19:07:38.355Z,17.02
2023-04-20T19:10:16.313Z,16.95
2023-04-20T19:12:52.982Z,16.86
2023-04-20T19:15:41.617Z,16.77
2023-04-20T19:18:18.838Z,16.70
2023-04-20T19:20:53.915Z,16.64
2023-04-20T19:23:37.184Z,16.56
2023-04-20T19:26:13.594Z,16.49
2023-04-20T19:28:49.729Z,16.43
2023-04-20T19:31:25.869Z,16.38
2023-04-20T19:34:01.553Z,16.34
2023-04-20T19:36:37.826Z,16.29
2023-04-20T19:39:13.162Z,16.25
2023-04-20T19:41:55.403Z,16.21
2023-04-20T19:44:33.059Z,16.16
2023-04-20T19:47:19.321Z,16.13
2023-04-20T19:49:56.697Z,16.09
2023-04-20T19:52:32.855Z,16.05
2023-04-20T19:55:12.835Z,16.03
2023-04-20T19:57:46.591Z,16.01
2023-04-20T20:00:24.710Z,15.98
2023-04-20T20:03:00.199Z,15.96
2023-04-20T20:05:35.535Z,15.94
2023-04-20T20:08:09.972Z,15.94
2023-04-20T20:10:44.316Z,15.92
2023-04-20T20:13:18.672Z,15.91
2023-04-20T20:16:13.606Z,15.88
2023-04-20T20:18:49.180Z,15.85
2023-04-20T20:21:25.622Z,15.83
2023-04-20T20:23:59.661Z,15.81
2023-04-20T20:26:34.306Z,15.78
2023-04-20T20:29:08.009Z,15.74
2023-04-20T20:31:42.329Z,15.70
2023-04-20T20:34:16.798Z,15.67
2023-04-20T20:36:51.735Z,15.64
2023-04-20T20:39:25.345Z,15.61
2023-04-20T20:42:00.153Z,15.57
2023-04-20T20:44:34.627Z,15.53
2023-04-20T20:47:09.036Z,15.50
2023-04-20T20:49:42.732Z,15.45
2023-04-20T20:52:16.654Z,15.43
2023-04-20T20:54:50.571Z,15.39
2023-04-20T20:57:24.828Z,15.36
2023-04-20T20:59:58.445Z,15.32
2023-04-20T21:02:32.425Z,15.29
2023-04-20T21:05:07.370Z,15.26
2023-04-20T21:07:41.904Z,15.23
2023-04-20T21:10:16.219Z,15.22
2023-04-20T21:12:50.109Z,15.19
2023-04-20T21:15:24.093Z,15.16
2023-04-20T21:18:01.090Z,15.12
2023-04-20T21:20:35.193Z,15.07
2023-04-20T21:23:09.330Z,15.03
2023-04-20T21:25:43.322Z,15.01
2023-04-20T21:28:17.478Z,14.98
2023-04-20T21:30:51.355Z,14.95
2023-04-20T21:33:28.072Z,14.93
2023-04-20T21:36:01.990Z,14.90
2023-04-20T21:38:36.250Z,14.88
2023-04-20T21:41:09.949Z,14.86
2023-04-20T21:43:43.937Z,14.83
2023-04-20T21:46:19.453Z,14.81
2023-04-20T21:48:53.845Z,14.79
2023-04-20T21:51:28.147Z,14.77
2023-04-20T21:54:02.108Z,14.75
2023-04-20T21:56:36.193Z,14.73
2023-04-20T21:59:10.122Z,14.71
2023-04-20T22:01:43.959Z,14.70
2023-04-20T22:04:18.430Z,14.68
2023-04-20T22:06:53.764Z,14.66
2023-04-20T22:09:27.821Z,14.65
2023-04-20T22:12:02.344Z,14.62
2023-04-20T22:14:36.061Z,14.61
2023-04-20T22:17:14.774Z,14.59
2023-04-20T22:19:48.878Z,14.56
2023-04-20T22:22:22.778Z,14.53
2023-04-20T22:24:56.694Z,14.50
2023-04-20T22:27:30.684Z,14.47
2023-04-20T22:30:04.798Z,14.44
2023-04-20T22:32:39.067Z,14.41
2023-04-20T22:35:13.223Z,14.39
2023-04-20T22:37:46.876Z,14.35
2023-04-20T22:40:20.682Z,14.33
2023-04-20T22:42:54.223Z,14.29
2023-04-20T22:45:27.697Z,14.26
2023-04-20T22:48:01.940Z,14.23
2023-04-20T22:50:36.323Z,14.19
2023-04-20T22:53:10.527Z,14.17
2023-04-20T22:55:44.409Z,14.13
2023-04-20T22:58:17.849Z,14.10
2023-04-20T23:00:52.058Z,14.08
2023-04-20T23:03:26.433Z,14.04
2023-04-20T23:06:00.092Z,14.01
2023-04-20T23:08:35.095Z,13.97
2023-04-20T23:11:08.821Z,13.94
2023-04-20T23:13:42.908Z,13.92
2023-04-20T23:16:16.896Z,13.89
2023-04-20T23:18:50.609Z,13.85
2023-04-20T23:21:24.693Z,13.82
2023-04-20T23:23:59.941Z,13.81
2023-04-20T23:26:33.971Z,13.80
2023-04-20T23:29:07.900Z,13.77
2023-04-20T23:31:41.843Z,13.74
2023-04-20T23:34:15.867Z,13.70
2023-04-20T23:36:49.191Z,13.67
2023-04-20T23:39:23.547Z,13.63
2023-04-20T23:41:58.159Z,13.58
2023-04-20T23:44:31.727Z,13.55
2023-04-20T23:47:05.568Z,13.51
2023-04-20T23:49:39.448Z,13.48
2023-04-20T23:52:13.419Z,13.45
2023-04-20T23:54:47.813Z,13.40
2023-04-20T23:57:21.333Z,13.36
2023-04-20T23:59:54.796Z,13.31
